CheckWX is a tool to help pilots better visualize weather data.  It is not intended as a substitute for an official pre-flight weather briefing.

06:30:53 UTC

KOEB METAR
Branch County Memorial Airport
Coldwater, Michigan, USA
Current

15 mins ago

KOEB 260616Z AUTO 24006KT 10SM CLR 21/17 A2996 RMK AO2 T02100166
Observed
Jun-26 @ 06:16 UTC
Wind
  • 240° at 6 KTS
Visibility
10 SM
Flight Rules
VFR
Cloud Levels
  • Clear skies
Temperature
21°C / 70°F
Dewpoint
17°C / 63°F
Humidity
78%
Altimeter
29.96" Hg
Pressure
1014.52 hPa
Previous

35 mins ago

KOEB 260556Z AUTO 23007KT 10SM CLR 21/17 A2995 RMK AO2 T02140165 10257 20200 402790165
Observed
Jun-26 @ 05:56 UTC
Wind
  • 230° at 7 KTS
Visibility
10 SM
Flight Rules
VFR
Cloud Levels
  • Clear skies
Temperature
21°C / 70°F
Dewpoint
17°C / 63°F
Humidity
78%
Altimeter
29.95" Hg
Pressure
1014.22 hPa
Previous

53 mins ago

KOEB 260538Z AUTO 24010KT 10SM CLR 22/17 A2996 RMK AO2 T02160165
Observed
Jun-26 @ 05:38 UTC
Wind
  • 240° at 10 KTS
Visibility
10 SM
Flight Rules
VFR
Cloud Levels
  • Clear skies
Temperature
22°C / 72°F
Dewpoint
17°C / 63°F
Humidity
73%
Altimeter
29.96" Hg
Pressure
1014.52 hPa